sensor_id;sensor_type;location;lat;lon;timestamp;P1;durP1;ratioP1;P2;durP2;ratioP2
10132;SDS011;5106;50.926;7.080;2023-12-14T00:05:00;6.63;;;3.27;;
10132;SDS011;5106;50.926;7.080;2023-12-14T00:07:26;4.13;;;3.30;;
10132;SDS011;5106;50.926;7.080;2023-12-14T00:09:51;5.10;;;3.10;;
10132;SDS011;5106;50.926;7.080;2023-12-14T00:12:17;6.63;;;3.43;;
10132;SDS011;5106;50.926;7.080;2023-12-14T00:14:42;6.13;;;3.30;;
10132;SDS011;5106;50.926;7.080;2023-12-14T00:17:08;4.70;;;3.30;;
10132;SDS011;5106;50.926;7.080;2023-12-14T00:19:33;4.67;;;3.07;;
10132;SDS011;5106;50.926;7.080;2023-12-14T00:21:59;5.10;;;3.07;;
10132;SDS011;5106;50.926;7.080;2023-12-14T00:24:25;5.60;;;3.10;;
10132;SDS011;5106;50.926;7.080;2023-12-14T00:26:50;6.90;;;3.20;;
10132;SDS011;5106;50.926;7.080;2023-12-14T00:29:16;8.23;;;3.70;;
10132;SDS011;5106;50.926;7.080;2023-12-14T00:31:41;8.40;;;3.53;;
10132;SDS011;5106;50.926;7.080;2023-12-14T00:34:07;4.73;;;3.03;;
10132;SDS011;5106;50.926;7.080;2023-12-14T00:36:32;6.27;;;3.43;;
10132;SDS011;5106;50.926;7.080;2023-12-14T00:38:58;7.90;;;3.57;;
10132;SDS011;5106;50.926;7.080;2023-12-14T00:41:23;6.90;;;3.47;;
10132;SDS011;5106;50.926;7.080;2023-12-14T00:43:49;6.70;;;3.73;;
10132;SDS011;5106;50.926;7.080;2023-12-14T00:46:14;6.50;;;3.40;;
10132;SDS011;5106;50.926;7.080;2023-12-14T00:48:40;7.33;;;3.40;;
10132;SDS011;5106;50.926;7.080;2023-12-14T00:51:06;6.30;;;3.47;;
10132;SDS011;5106;50.926;7.080;2023-12-14T00:53:31;8.80;;;3.30;;
10132;SDS011;5106;50.926;7.080;2023-12-14T00:55:57;3.93;;;2.87;;
10132;SDS011;5106;50.926;7.080;2023-12-14T00:58:22;7.37;;;3.50;;
10132;SDS011;5106;50.926;7.080;2023-12-14T01:00:48;7.53;;;3.10;;
10132;SDS011;5106;50.926;7.080;2023-12-14T01:03:14;5.40;;;3.30;;
10132;SDS011;5106;50.926;7.080;2023-12-14T01:05:39;5.17;;;2.90;;
10132;SDS011;5106;50.926;7.080;2023-12-14T01:08:05;5.43;;;3.20;;
10132;SDS011;5106;50.926;7.080;2023-12-14T01:10:31;4.83;;;3.13;;
10132;SDS011;5106;50.926;7.080;2023-12-14T01:12:57;5.77;;;3.20;;
10132;SDS011;5106;50.926;7.080;2023-12-14T01:15:23;7.63;;;3.20;;
10132;SDS011;5106;50.926;7.080;2023-12-14T01:17:48;6.10;;;3.47;;
10132;SDS011;5106;50.926;7.080;2023-12-14T01:20:14;5.37;;;3.17;;
10132;SDS011;5106;50.926;7.080;2023-12-14T01:22:39;7.23;;;3.00;;
10132;SDS011;5106;50.926;7.080;2023-12-14T01:25:05;5.10;;;3.30;;
10132;SDS011;5106;50.926;7.080;2023-12-14T01:27:31;7.67;;;3.50;;
10132;SDS011;5106;50.926;7.080;2023-12-14T01:29:56;5.57;;;3.70;;
10132;SDS011;5106;50.926;7.080;2023-12-14T01:32:22;6.90;;;3.20;;
10132;SDS011;5106;50.926;7.080;2023-12-14T01:34:47;4.90;;;3.33;;
10132;SDS011;5106;50.926;7.080;2023-12-14T01:37:13;7.07;;;3.57;;
10132;SDS011;5106;50.926;7.080;2023-12-14T01:39:38;8.43;;;4.10;;
10132;SDS011;5106;50.926;7.080;2023-12-14T01:42:04;6.07;;;3.47;;
10132;SDS011;5106;50.926;7.080;2023-12-14T01:44:30;5.27;;;3.90;;
10132;SDS011;5106;50.926;7.080;2023-12-14T01:46:55;5.97;;;3.23;;
10132;SDS011;5106;50.926;7.080;2023-12-14T01:49:21;7.97;;;3.60;;
10132;SDS011;5106;50.926;7.080;2023-12-14T01:51:46;7.90;;;4.13;;
10132;SDS011;5106;50.926;7.080;2023-12-14T01:54:12;5.60;;;3.60;;
10132;SDS011;5106;50.926;7.080;2023-12-14T01:56:38;5.57;;;3.80;;
10132;SDS011;5106;50.926;7.080;2023-12-14T01:59:03;10.00;;;4.90;;
10132;SDS011;5106;50.926;7.080;2023-12-14T02:04:03;8.73;;;5.33;;
10132;SDS011;5106;50.926;7.080;2023-12-14T02:06:31;8.03;;;5.40;;
10132;SDS011;5106;50.926;7.080;2023-12-14T02:08:57;10.10;;;6.60;;
10132;SDS011;5106;50.926;7.080;2023-12-14T02:11:22;9.83;;;5.47;;
10132;SDS011;5106;50.926;7.080;2023-12-14T02:13:48;10.90;;;6.97;;
10132;SDS011;5106;50.926;7.080;2023-12-14T02:16:13;13.73;;;8.37;;
10132;SDS011;5106;50.926;7.080;2023-12-14T02:18:40;12.40;;;8.23;;
10132;SDS011;5106;50.926;7.080;2023-12-14T02:21:05;17.90;;;11.33;;
10132;SDS011;5106;50.926;7.080;2023-12-14T02:23:31;16.87;;;11.00;;
10132;SDS011;5106;50.926;7.080;2023-12-14T02:25:57;23.07;;;14.90;;
10132;SDS011;5106;50.926;7.080;2023-12-14T02:28:22;25.80;;;15.80;;
10132;SDS011;5106;50.926;7.080;2023-12-14T02:30:48;28.60;;;18.67;;
10132;SDS011;5106;50.926;7.080;2023-12-14T02:33:13;31.80;;;20.07;;
10132;SDS011;5106;50.926;7.080;2023-12-14T02:35:39;31.07;;;18.13;;
10132;SDS011;5106;50.926;7.080;2023-12-14T02:38:05;31.03;;;19.07;;
10132;SDS011;5106;50.926;7.080;2023-12-14T02:40:31;33.73;;;19.73;;
10132;SDS011;5106;50.926;7.080;2023-12-14T02:42:56;34.47;;;20.00;;
10132;SDS011;5106;50.926;7.080;2023-12-14T02:45:22;33.87;;;19.70;;
10132;SDS011;5106;50.926;7.080;2023-12-14T02:47:47;29.80;;;18.57;;
10132;SDS011;5106;50.926;7.080;2023-12-14T02:50:14;36.77;;;21.23;;
10132;SDS011;5106;50.926;7.080;2023-12-14T02:52:40;32.53;;;19.30;;
10132;SDS011;5106;50.926;7.080;2023-12-14T02:55:06;39.43;;;20.60;;
10132;SDS011;5106;50.926;7.080;2023-12-14T02:57:32;37.93;;;20.27;;
10132;SDS011;5106;50.926;7.080;2023-12-14T02:59:57;37.07;;;20.60;;
10132;SDS011;5106;50.926;7.080;2023-12-14T03:02:23;38.27;;;21.83;;
10132;SDS011;5106;50.926;7.080;2023-12-14T03:04:48;38.60;;;20.90;;
10132;SDS011;5106;50.926;7.080;2023-12-14T03:07:14;40.13;;;21.03;;
10132;SDS011;5106;50.926;7.080;2023-12-14T03:09:40;43.13;;;20.53;;
10132;SDS011;5106;50.926;7.080;2023-12-14T03:12:09;39.77;;;21.37;;
10132;SDS011;5106;50.926;7.080;2023-12-14T03:14:36;42.97;;;21.63;;
10132;SDS011;5106;50.926;7.080;2023-12-14T03:17:01;43.30;;;21.47;;
10132;SDS011;5106;50.926;7.080;2023-12-14T03:19:27;38.30;;;20.27;;
10132;SDS011;5106;50.926;7.080;2023-12-14T03:21:53;40.77;;;21.23;;
10132;SDS011;5106;50.926;7.080;2023-12-14T03:24:19;37.03;;;20.17;;
10132;SDS011;5106;50.926;7.080;2023-12-14T03:26:45;37.80;;;18.33;;
10132;SDS011;5106;50.926;7.080;2023-12-14T03:29:11;33.00;;;17.00;;
10132;SDS011;5106;50.926;7.080;2023-12-14T03:31:36;33.70;;;17.83;;
10132;SDS011;5106;50.926;7.080;2023-12-14T03:34:02;34.73;;;17.07;;
10132;SDS011;5106;50.926;7.080;2023-12-14T03:36:28;31.03;;;16.93;;
10132;SDS011;5106;50.926;7.080;2023-12-14T03:38:53;31.80;;;17.07;;
10132;SDS011;5106;50.926;7.080;2023-12-14T03:41:19;33.10;;;18.07;;
10132;SDS011;5106;50.926;7.080;2023-12-14T03:43:45;34.33;;;17.57;;
10132;SDS011;5106;50.926;7.080;2023-12-14T03:46:11;32.67;;;17.27;;
10132;SDS011;5106;50.926;7.080;2023-12-14T03:48:36;35.10;;;18.70;;
10132;SDS011;5106;50.926;7.080;2023-12-14T03:51:02;36.43;;;18.43;;
10132;SDS011;5106;50.926;7.080;2023-12-14T03:53:28;34.33;;;18.03;;
10132;SDS011;5106;50.926;7.080;2023-12-14T03:55:54;35.63;;;19.67;;
10132;SDS011;5106;50.926;7.080;2023-12-14T03:58:20;38.53;;;19.43;;
10132;SDS011;5106;50.926;7.080;2023-12-14T04:00:45;35.53;;;18.63;;
10132;SDS011;5106;50.926;7.080;2023-12-14T04:03:11;31.47;;;17.97;;
10132;SDS011;5106;50.926;7.080;2023-12-14T04:05:37;34.73;;;17.43;;
10132;SDS011;5106;50.926;7.080;2023-12-14T04:08:03;31.23;;;17.40;;
10132;SDS011;5106;50.926;7.080;2023-12-14T04:10:29;31.30;;;17.23;;
10132;SDS011;5106;50.926;7.080;2023-12-14T04:12:56;28.07;;;16.93;;
10132;SDS011;5106;50.926;7.080;2023-12-14T04:15:21;30.47;;;18.47;;
10132;SDS011;5106;50.926;7.080;2023-12-14T04:17:47;29.03;;;16.17;;
10132;SDS011;5106;50.926;7.080;2023-12-14T04:20:13;22.27;;;15.03;;
10132;SDS011;5106;50.926;7.080;2023-12-14T04:22:40;21.50;;;12.93;;
10132;SDS011;5106;50.926;7.080;2023-12-14T04:25:06;19.20;;;13.20;;
10132;SDS011;5106;50.926;7.080;2023-12-14T04:27:32;15.23;;;11.03;;
10132;SDS011;5106;50.926;7.080;2023-12-14T04:29:58;15.87;;;9.83;;
10132;SDS011;5106;50.926;7.080;2023-12-14T04:32:23;16.10;;;10.50;;
10132;SDS011;5106;50.926;7.080;2023-12-14T04:34:49;13.50;;;9.60;;
10132;SDS011;5106;50.926;7.080;2023-12-14T04:37:15;12.97;;;8.63;;
10132;SDS011;5106;50.926;7.080;2023-12-14T04:39:40;13.87;;;10.13;;
10132;SDS011;5106;50.926;7.080;2023-12-14T04:42:06;12.73;;;9.07;;
10132;SDS011;5106;50.926;7.080;2023-12-14T04:44:31;17.30;;;9.60;;
10132;SDS011;5106;50.926;7.080;2023-12-14T04:46:57;13.57;;;9.47;;
10132;SDS011;5106;50.926;7.080;2023-12-14T04:49:22;15.47;;;10.90;;
10132;SDS011;5106;50.926;7.080;2023-12-14T04:51:48;17.27;;;11.67;;
10132;SDS011;5106;50.926;7.080;2023-12-14T04:54:13;14.77;;;11.43;;
10132;SDS011;5106;50.926;7.080;2023-12-14T04:56:39;15.53;;;11.57;;
10132;SDS011;5106;50.926;7.080;2023-12-14T04:59:06;16.43;;;12.53;;
10132;SDS011;5106;50.926;7.080;2023-12-14T05:01:32;17.77;;;12.77;;
10132;SDS011;5106;50.926;7.080;2023-12-14T05:03:57;17.40;;;12.47;;
10132;SDS011;5106;50.926;7.080;2023-12-14T05:06:23;16.73;;;12.07;;
10132;SDS011;5106;50.926;7.080;2023-12-14T05:08:49;18.33;;;13.43;;
10132;SDS011;5106;50.926;7.080;2023-12-14T05:11:14;21.40;;;13.93;;
10132;SDS011;5106;50.926;7.080;2023-12-14T05:13:40;21.93;;;15.90;;
10132;SDS011;5106;50.926;7.080;2023-12-14T05:16:06;24.10;;;16.00;;
10132;SDS011;5106;50.926;7.080;2023-12-14T05:18:37;23.77;;;16.40;;
10132;SDS011;5106;50.926;7.080;2023-12-14T05:21:02;29.33;;;17.77;;
10132;SDS011;5106;50.926;7.080;2023-12-14T05:23:28;27.47;;;17.27;;
10132;SDS011;5106;50.926;7.080;2023-12-14T05:25:54;28.23;;;18.37;;
10132;SDS011;5106;50.926;7.080;2023-12-14T05:28:19;30.13;;;19.20;;
10132;SDS011;5106;50.926;7.080;2023-12-14T05:30:45;32.63;;;19.23;;
10132;SDS011;5106;50.926;7.080;2023-12-14T05:33:11;31.10;;;19.47;;
10132;SDS011;5106;50.926;7.080;2023-12-14T05:35:36;32.40;;;19.17;;
10132;SDS011;5106;50.926;7.080;2023-12-14T05:38:02;32.27;;;19.87;;
10132;SDS011;5106;50.926;7.080;2023-12-14T05:40:28;33.97;;;20.50;;
10132;SDS011;5106;50.926;7.080;2023-12-14T05:42:54;34.60;;;20.47;;
10132;SDS011;5106;50.926;7.080;2023-12-14T05:45:20;34.90;;;19.53;;
10132;SDS011;5106;50.926;7.080;2023-12-14T05:47:45;34.00;;;20.20;;
10132;SDS011;5106;50.926;7.080;2023-12-14T05:50:11;36.20;;;21.23;;
10132;SDS011;5106;50.926;7.080;2023-12-14T05:52:37;32.53;;;20.40;;
10132;SDS011;5106;50.926;7.080;2023-12-14T05:55:03;34.70;;;20.83;;
10132;SDS011;5106;50.926;7.080;2023-12-14T05:57:29;36.63;;;21.60;;
10132;SDS011;5106;50.926;7.080;2023-12-14T05:59:55;38.30;;;20.87;;
10132;SDS011;5106;50.926;7.080;2023-12-14T06:02:21;35.20;;;21.53;;
10132;SDS011;5106;50.926;7.080;2023-12-14T06:04:47;33.97;;;20.53;;
10132;SDS011;5106;50.926;7.080;2023-12-14T06:07:16;36.30;;;20.33;;
10132;SDS011;5106;50.926;7.080;2023-12-14T06:09:42;32.57;;;19.97;;
10132;SDS011;5106;50.926;7.080;2023-12-14T06:12:07;34.43;;;19.23;;
10132;SDS011;5106;50.926;7.080;2023-12-14T06:14:33;30.27;;;19.57;;
10132;SDS011;5106;50.926;7.080;2023-12-14T06:16:59;32.10;;;19.87;;
10132;SDS011;5106;50.926;7.080;2023-12-14T06:19:24;32.57;;;19.00;;
10132;SDS011;5106;50.926;7.080;2023-12-14T06:21:50;30.83;;;18.73;;
10132;SDS011;5106;50.926;7.080;2023-12-14T06:24:15;33.53;;;18.97;;
10132;SDS011;5106;50.926;7.080;2023-12-14T06:26:41;34.90;;;20.23;;
10132;SDS011;5106;50.926;7.080;2023-12-14T06:29:08;34.30;;;19.20;;
10132;SDS011;5106;50.926;7.080;2023-12-14T06:31:34;34.07;;;20.23;;
10132;SDS011;5106;50.926;7.080;2023-12-14T06:34:00;35.63;;;21.33;;
10132;SDS011;5106;50.926;7.080;2023-12-14T06:36:28;40.90;;;21.33;;
10132;SDS011;5106;50.926;7.080;2023-12-14T06:38:54;39.57;;;20.97;;
10132;SDS011;5106;50.926;7.080;2023-12-14T06:41:20;38.67;;;20.90;;
10132;SDS011;5106;50.926;7.080;2023-12-14T06:43:47;37.37;;;21.17;;
10132;SDS011;5106;50.926;7.080;2023-12-14T06:46:13;38.87;;;22.40;;
10132;SDS011;5106;50.926;7.080;2023-12-14T06:48:39;41.97;;;22.90;;
10132;SDS011;5106;50.926;7.080;2023-12-14T06:51:05;45.40;;;23.90;;
10132;SDS011;5106;50.926;7.080;2023-12-14T06:53:30;48.67;;;24.00;;
10132;SDS011;5106;50.926;7.080;2023-12-14T06:55:56;41.37;;;22.43;;
10132;SDS011;5106;50.926;7.080;2023-12-14T06:58:21;46.10;;;22.63;;
10132;SDS011;5106;50.926;7.080;2023-12-14T07:00:47;41.33;;;22.77;;
10132;SDS011;5106;50.926;7.080;2023-12-14T07:03:13;40.47;;;22.00;;
10132;SDS011;5106;50.926;7.080;2023-12-14T07:05:38;36.90;;;19.73;;
10132;SDS011;5106;50.926;7.080;2023-12-14T07:08:04;34.80;;;18.67;;
10132;SDS011;5106;50.926;7.080;2023-12-14T07:10:30;34.07;;;18.97;;
10132;SDS011;5106;50.926;7.080;2023-12-14T07:12:55;34.67;;;18.20;;
10132;SDS011;5106;50.926;7.080;2023-12-14T07:15:21;33.17;;;17.50;;
10132;SDS011;5106;50.926;7.080;2023-12-14T07:17:47;30.73;;;16.73;;
10132;SDS011;5106;50.926;7.080;2023-12-14T07:20:12;30.17;;;16.40;;
10132;SDS011;5106;50.926;7.080;2023-12-14T07:22:38;30.77;;;17.10;;
10132;SDS011;5106;50.926;7.080;2023-12-14T07:25:04;32.87;;;17.50;;
10132;SDS011;5106;50.926;7.080;2023-12-14T07:27:29;32.53;;;16.03;;
10132;SDS011;5106;50.926;7.080;2023-12-14T07:29:55;28.10;;;16.63;;
10132;SDS011;5106;50.926;7.080;2023-12-14T07:32:21;26.70;;;15.80;;
10132;SDS011;5106;50.926;7.080;2023-12-14T07:34:46;28.73;;;17.30;;
10132;SDS011;5106;50.926;7.080;2023-12-14T07:37:12;29.90;;;16.30;;
10132;SDS011;5106;50.926;7.080;2023-12-14T07:39:38;26.03;;;15.60;;
10132;SDS011;5106;50.926;7.080;2023-12-14T07:42:04;27.73;;;15.60;;
10132;SDS011;5106;50.926;7.080;2023-12-14T07:44:30;31.23;;;16.27;;
10132;SDS011;5106;50.926;7.080;2023-12-14T07:46:56;26.10;;;15.77;;
10132;SDS011;5106;50.926;7.080;2023-12-14T07:49:25;26.87;;;15.27;;
10132;SDS011;5106;50.926;7.080;2023-12-14T07:51:51;24.30;;;14.33;;
10132;SDS011;5106;50.926;7.080;2023-12-14T07:54:16;27.17;;;14.43;;
10132;SDS011;5106;50.926;7.080;2023-12-14T07:56:43;24.80;;;13.67;;
10132;SDS011;5106;50.926;7.080;2023-12-14T07:59:08;24.17;;;13.17;;
10132;SDS011;5106;50.926;7.080;2023-12-14T08:01:35;22.53;;;13.83;;
10132;SDS011;5106;50.926;7.080;2023-12-14T08:04:01;22.23;;;13.33;;
10132;SDS011;5106;50.926;7.080;2023-12-14T08:06:27;20.93;;;13.20;;
10132;SDS011;5106;50.926;7.080;2023-12-14T08:08:52;25.17;;;14.47;;
10132;SDS011;5106;50.926;7.080;2023-12-14T08:11:18;32.40;;;17.77;;
10132;SDS011;5106;50.926;7.080;2023-12-14T08:13:43;34.97;;;18.57;;
10132;SDS011;5106;50.926;7.080;2023-12-14T08:16:09;31.37;;;18.47;;
10132;SDS011;5106;50.926;7.080;2023-12-14T08:18:36;36.17;;;20.23;;
10132;SDS011;5106;50.926;7.080;2023-12-14T08:21:02;37.53;;;19.50;;
10132;SDS011;5106;50.926;7.080;2023-12-14T08:23:28;37.67;;;19.33;;
10132;SDS011;5106;50.926;7.080;2023-12-14T08:25:55;37.37;;;19.37;;
10132;SDS011;5106;50.926;7.080;2023-12-14T08:28:25;38.00;;;19.63;;
10132;SDS011;5106;50.926;7.080;2023-12-14T08:30:50;37.93;;;20.37;;
10132;SDS011;5106;50.926;7.080;2023-12-14T08:33:16;34.00;;;20.40;;
10132;SDS011;5106;50.926;7.080;2023-12-14T08:35:42;39.53;;;20.20;;
10132;SDS011;5106;50.926;7.080;2023-12-14T08:38:08;39.10;;;21.47;;
10132;SDS011;5106;50.926;7.080;2023-12-14T08:40:34;38.20;;;22.13;;
10132;SDS011;5106;50.926;7.080;2023-12-14T08:43:00;39.77;;;22.67;;
10132;SDS011;5106;50.926;7.080;2023-12-14T08:45:25;42.40;;;23.83;;
10132;SDS011;5106;50.926;7.080;2023-12-14T08:47:51;41.93;;;23.10;;
10132;SDS011;5106;50.926;7.080;2023-12-14T08:50:16;45.90;;;23.97;;
10132;SDS011;5106;50.926;7.080;2023-12-14T08:52:42;45.37;;;23.57;;
10132;SDS011;5106;50.926;7.080;2023-12-14T08:55:08;40.07;;;23.13;;
10132;SDS011;5106;50.926;7.080;2023-12-14T08:57:34;43.67;;;23.87;;
10132;SDS011;5106;50.926;7.080;2023-12-14T09:00:00;45.57;;;24.50;;
10132;SDS011;5106;50.926;7.080;2023-12-14T09:02:26;45.43;;;25.10;;
10132;SDS011;5106;50.926;7.080;2023-12-14T09:04:52;43.53;;;23.17;;
10132;SDS011;5106;50.926;7.080;2023-12-14T09:07:17;47.80;;;23.60;;
10132;SDS011;5106;50.926;7.080;2023-12-14T09:09:43;44.50;;;23.90;;
10132;SDS011;5106;50.926;7.080;2023-12-14T09:12:11;44.47;;;22.57;;
10132;SDS011;5106;50.926;7.080;2023-12-14T09:14:37;43.23;;;23.07;;
10132;SDS011;5106;50.926;7.080;2023-12-14T09:17:02;43.63;;;21.97;;
10132;SDS011;5106;50.926;7.080;2023-12-14T09:19:29;45.90;;;23.13;;
10132;SDS011;5106;50.926;7.080;2023-12-14T09:21:56;43.73;;;22.33;;
10132;SDS011;5106;50.926;7.080;2023-12-14T09:24:22;45.57;;;21.97;;
10132;SDS011;5106;50.926;7.080;2023-12-14T09:26:48;38.63;;;21.47;;
10132;SDS011;5106;50.926;7.080;2023-12-14T09:29:13;44.77;;;21.03;;
10132;SDS011;5106;50.926;7.080;2023-12-14T09:31:43;36.97;;;19.40;;
10132;SDS011;5106;50.926;7.080;2023-12-14T09:34:10;37.33;;;18.93;;
10132;SDS011;5106;50.926;7.080;2023-12-14T09:36:36;31.93;;;16.83;;
10132;SDS011;5106;50.926;7.080;2023-12-14T09:39:02;26.40;;;14.20;;
10132;SDS011;5106;50.926;7.080;2023-12-14T09:41:28;24.30;;;13.87;;
10132;SDS011;5106;50.926;7.080;2023-12-14T09:43:53;19.83;;;12.10;;
10132;SDS011;5106;50.926;7.080;2023-12-14T09:46:20;22.70;;;12.67;;
10132;SDS011;5106;50.926;7.080;2023-12-14T09:48:47;21.00;;;12.47;;
10132;SDS011;5106;50.926;7.080;2023-12-14T09:51:15;24.30;;;13.77;;
10132;SDS011;5106;50.926;7.080;2023-12-14T09:53:41;26.73;;;14.57;;
10132;SDS011;5106;50.926;7.080;2023-12-14T09:56:07;26.57;;;15.03;;
10132;SDS011;5106;50.926;7.080;2023-12-14T09:58:33;33.10;;;17.77;;
10132;SDS011;5106;50.926;7.080;2023-12-14T10:00:59;33.83;;;17.27;;
10132;SDS011;5106;50.926;7.080;2023-12-14T10:03:29;34.43;;;17.13;;
10132;SDS011;5106;50.926;7.080;2023-12-14T10:05:55;38.00;;;18.10;;
10132;SDS011;5106;50.926;7.080;2023-12-14T10:08:22;30.40;;;17.43;;
10132;SDS011;5106;50.926;7.080;2023-12-14T10:10:49;33.40;;;17.93;;
10132;SDS011;5106;50.926;7.080;2023-12-14T10:13:17;34.30;;;17.33;;
10132;SDS011;5106;50.926;7.080;2023-12-14T10:15:44;38.00;;;17.93;;
10132;SDS011;5106;50.926;7.080;2023-12-14T10:18:12;34.53;;;18.57;;
10132;SDS011;5106;50.926;7.080;2023-12-14T10:20:46;32.53;;;18.70;;
10132;SDS011;5106;50.926;7.080;2023-12-14T10:23:12;38.93;;;20.07;;
10132;SDS011;5106;50.926;7.080;2023-12-14T10:25:38;35.90;;;19.70;;
10132;SDS011;5106;50.926;7.080;2023-12-14T10:28:03;39.73;;;19.93;;
10132;SDS011;5106;50.926;7.080;2023-12-14T10:30:29;40.67;;;20.83;;
10132;SDS011;5106;50.926;7.080;2023-12-14T10:32:55;37.90;;;21.40;;
10132;SDS011;5106;50.926;7.080;2023-12-14T10:35:21;41.33;;;21.57;;
10132;SDS011;5106;50.926;7.080;2023-12-14T10:37:48;47.90;;;24.07;;
10132;SDS011;5106;50.926;7.080;2023-12-14T10:40:16;42.30;;;22.43;;
10132;SDS011;5106;50.926;7.080;2023-12-14T10:42:42;41.77;;;22.63;;
10132;SDS011;5106;50.926;7.080;2023-12-14T10:45:12;45.20;;;23.53;;
10132;SDS011;5106;50.926;7.080;2023-12-14T10:47:44;44.80;;;23.07;;
10132;SDS011;5106;50.926;7.080;2023-12-14T10:50:11;45.60;;;23.17;;
10132;SDS011;5106;50.926;7.080;2023-12-14T10:52:40;46.47;;;23.90;;
10132;SDS011;5106;50.926;7.080;2023-12-14T10:55:15;46.20;;;24.40;;
10132;SDS011;5106;50.926;7.080;2023-12-14T10:57:47;46.40;;;24.50;;
10132;SDS011;5106;50.926;7.080;2023-12-14T11:00:13;47.70;;;24.60;;
10132;SDS011;5106;50.926;7.080;2023-12-14T11:02:44;49.00;;;25.63;;
10132;SDS011;5106;50.926;7.080;2023-12-14T11:05:11;46.27;;;24.67;;
10132;SDS011;5106;50.926;7.080;2023-12-14T11:07:44;48.27;;;25.07;;
10132;SDS011;5106;50.926;7.080;2023-12-14T11:10:26;45.80;;;25.47;;
10132;SDS011;5106;50.926;7.080;2023-12-14T11:13:00;48.83;;;24.87;;
10132;SDS011;5106;50.926;7.080;2023-12-14T11:15:30;43.43;;;24.43;;
10132;SDS011;5106;50.926;7.080;2023-12-14T11:23:16;47.20;;;25.47;;
10132;SDS011;5106;50.926;7.080;2023-12-14T11:25:52;45.53;;;24.73;;
10132;SDS011;5106;50.926;7.080;2023-12-14T11:28:20;44.57;;;23.77;;
10132;SDS011;5106;50.926;7.080;2023-12-14T11:30:46;47.23;;;24.43;;
10132;SDS011;5106;50.926;7.080;2023-12-14T11:33:12;47.20;;;25.47;;
10132;SDS011;5106;50.926;7.080;2023-12-14T11:35:39;50.47;;;26.07;;
10132;SDS011;5106;50.926;7.080;2023-12-14T11:38:05;49.87;;;26.70;;
10132;SDS011;5106;50.926;7.080;2023-12-14T11:40:44;55.60;;;26.13;;
10132;SDS011;5106;50.926;7.080;2023-12-14T11:43:10;49.63;;;26.43;;
10132;SDS011;5106;50.926;7.080;2023-12-14T11:45:39;57.33;;;27.37;;
10132;SDS011;5106;50.926;7.080;2023-12-14T11:48:06;48.30;;;26.20;;
10132;SDS011;5106;50.926;7.080;2023-12-14T11:50:40;51.17;;;26.10;;
10132;SDS011;5106;50.926;7.080;2023-12-14T11:53:07;46.13;;;24.47;;
10132;SDS011;5106;50.926;7.080;2023-12-14T11:55:34;41.50;;;23.03;;
10132;SDS011;5106;50.926;7.080;2023-12-14T11:58:01;41.77;;;22.00;;
10132;SDS011;5106;50.926;7.080;2023-12-14T12:00:28;36.20;;;20.13;;
10132;SDS011;5106;50.926;7.080;2023-12-14T12:03:16;32.53;;;18.37;;
10132;SDS011;5106;50.926;7.080;2023-12-14T12:05:46;36.70;;;19.93;;
10132;SDS011;5106;50.926;7.080;2023-12-14T12:08:17;40.80;;;20.20;;
10132;SDS011;5106;50.926;7.080;2023-12-14T12:10:45;36.33;;;20.73;;
10132;SDS011;5106;50.926;7.080;2023-12-14T12:13:12;44.57;;;23.57;;
10132;SDS011;5106;50.926;7.080;2023-12-14T12:15:39;40.57;;;23.60;;
10132;SDS011;5106;50.926;7.080;2023-12-14T12:18:06;48.50;;;24.80;;
10132;SDS011;5106;50.926;7.080;2023-12-14T12:20:32;45.53;;;26.23;;
10132;SDS011;5106;50.926;7.080;2023-12-14T12:22:59;42.70;;;25.03;;
10132;SDS011;5106;50.926;7.080;2023-12-14T12:25:25;48.63;;;25.53;;
10132;SDS011;5106;50.926;7.080;2023-12-14T12:27:52;45.57;;;24.70;;
10132;SDS011;5106;50.926;7.080;2023-12-14T12:30:21;47.90;;;26.33;;
10132;SDS011;5106;50.926;7.080;2023-12-14T12:32:48;43.40;;;24.20;;
10132;SDS011;5106;50.926;7.080;2023-12-14T12:35:14;45.77;;;25.20;;
10132;SDS011;5106;50.926;7.080;2023-12-14T12:37:40;42.83;;;23.23;;
10132;SDS011;5106;50.926;7.080;2023-12-14T12:40:06;46.43;;;24.80;;
10132;SDS011;5106;50.926;7.080;2023-12-14T12:42:32;44.67;;;23.70;;
10132;SDS011;5106;50.926;7.080;2023-12-14T12:44:58;39.73;;;22.87;;
10132;SDS011;5106;50.926;7.080;2023-12-14T12:47:24;40.80;;;23.80;;
10132;SDS011;5106;50.926;7.080;2023-12-14T12:49:49;39.10;;;22.93;;
10132;SDS011;5106;50.926;7.080;2023-12-14T12:52:15;37.43;;;22.13;;
10132;SDS011;5106;50.926;7.080;2023-12-14T12:54:40;37.30;;;22.27;;
10132;SDS011;5106;50.926;7.080;2023-12-14T12:57:06;40.33;;;23.13;;
10132;SDS011;5106;50.926;7.080;2023-12-14T12:59:32;41.03;;;22.67;;
10132;SDS011;5106;50.926;7.080;2023-12-14T13:01:58;34.77;;;21.53;;
10132;SDS011;5106;50.926;7.080;2023-12-14T13:04:24;38.60;;;21.97;;
10132;SDS011;5106;50.926;7.080;2023-12-14T13:06:51;39.37;;;22.20;;
10132;SDS011;5106;50.926;7.080;2023-12-14T13:09:17;35.43;;;21.00;;
10132;SDS011;5106;50.926;7.080;2023-12-14T13:11:44;37.67;;;21.27;;
10132;SDS011;5106;50.926;7.080;2023-12-14T13:14:10;32.87;;;20.13;;
10132;SDS011;5106;50.926;7.080;2023-12-14T13:16:36;37.90;;;21.70;;
10132;SDS011;5106;50.926;7.080;2023-12-14T13:19:02;35.97;;;20.30;;
10132;SDS011;5106;50.926;7.080;2023-12-14T13:21:29;35.43;;;20.73;;
10132;SDS011;5106;50.926;7.080;2023-12-14T13:23:55;35.53;;;21.30;;
10132;SDS011;5106;50.926;7.080;2023-12-14T13:26:24;34.00;;;20.40;;
10132;SDS011;5106;50.926;7.080;2023-12-14T13:28:50;32.30;;;19.27;;
10132;SDS011;5106;50.926;7.080;2023-12-14T13:31:17;37.10;;;20.83;;
10132;SDS011;5106;50.926;7.080;2023-12-14T13:33:42;38.93;;;21.13;;
10132;SDS011;5106;50.926;7.080;2023-12-14T13:36:08;30.70;;;19.90;;
10132;SDS011;5106;50.926;7.080;2023-12-14T13:38:34;33.67;;;19.17;;
10132;SDS011;5106;50.926;7.080;2023-12-14T13:41:01;33.87;;;18.73;;
10132;SDS011;5106;50.926;7.080;2023-12-14T13:43:30;29.63;;;18.03;;
10132;SDS011;5106;50.926;7.080;2023-12-14T13:45:56;27.60;;;16.70;;
10132;SDS011;5106;50.926;7.080;2023-12-14T13:48:25;24.70;;;15.80;;
10132;SDS011;5106;50.926;7.080;2023-12-14T13:50:52;21.40;;;14.50;;
10132;SDS011;5106;50.926;7.080;2023-12-14T13:53:19;23.13;;;14.33;;
10132;SDS011;5106;50.926;7.080;2023-12-14T13:55:45;25.10;;;13.57;;
10132;SDS011;5106;50.926;7.080;2023-12-14T13:58:11;20.37;;;12.63;;
10132;SDS011;5106;50.926;7.080;2023-12-14T14:00:37;19.57;;;12.20;;
10132;SDS011;5106;50.926;7.080;2023-12-14T14:03:03;17.97;;;12.07;;
10132;SDS011;5106;50.926;7.080;2023-12-14T14:05:29;17.87;;;11.03;;
10132;SDS011;5106;50.926;7.080;2023-12-14T14:07:58;16.63;;;11.17;;
10132;SDS011;5106;50.926;7.080;2023-12-14T14:10:24;14.87;;;10.63;;
10132;SDS011;5106;50.926;7.080;2023-12-14T14:12:50;16.50;;;10.80;;
10132;SDS011;5106;50.926;7.080;2023-12-14T14:15:16;14.90;;;10.57;;
10132;SDS011;5106;50.926;7.080;2023-12-14T14:17:42;14.03;;;10.30;;
10132;SDS011;5106;50.926;7.080;2023-12-14T14:20:07;12.83;;;9.30;;
10132;SDS011;5106;50.926;7.080;2023-12-14T14:22:35;14.77;;;9.53;;
10132;SDS011;5106;50.926;7.080;2023-12-14T14:25:04;14.40;;;9.43;;
10132;SDS011;5106;50.926;7.080;2023-12-14T14:27:31;12.70;;;8.50;;
10132;SDS011;5106;50.926;7.080;2023-12-14T14:29:58;12.87;;;8.27;;
10132;SDS011;5106;50.926;7.080;2023-12-14T14:32:23;11.90;;;8.27;;
10132;SDS011;5106;50.926;7.080;2023-12-14T14:34:49;12.50;;;8.10;;
10132;SDS011;5106;50.926;7.080;2023-12-14T14:37:15;11.30;;;8.00;;
10132;SDS011;5106;50.926;7.080;2023-12-14T14:39:42;12.83;;;7.27;;
10132;SDS011;5106;50.926;7.080;2023-12-14T14:42:08;12.27;;;8.27;;
10132;SDS011;5106;50.926;7.080;2023-12-14T14:44:34;13.57;;;8.53;;